createdAt,value
2023-04-17T00:00:16.598Z,65.40
2023-04-17T00:05:23.254Z,65.70
2023-04-17T00:10:26.694Z,65.50
2023-04-17T00:15:31.748Z,65.50
2023-04-17T00:20:35.062Z,65.70
2023-04-17T00:25:38.554Z,65.70
2023-04-17T00:30:43.270Z,65.70
2023-04-17T00:35:46.546Z,65.90
2023-04-17T00:40:51.855Z,65.90
2023-04-17T00:45:56.802Z,66.10
2023-04-17T00:51:02.348Z,66.50
2023-04-17T00:56:07.820Z,66.40
2023-04-17T01:01:12.647Z,66.70
2023-04-17T01:06:16.157Z,66.60
2023-04-17T01:11:19.482Z,66.50
2023-04-17T01:16:24.559Z,66.60
2023-04-17T01:21:28.264Z,66.80
2023-04-17T01:26:33.694Z,66.70
2023-04-17T01:31:37.219Z,66.90
2023-04-17T01:36:41.485Z,66.70
2023-04-17T01:41:46.293Z,66.60
2023-04-17T01:46:49.968Z,66.80
2023-04-17T01:51:53.279Z,66.70
2023-04-17T01:56:58.310Z,66.80
2023-04-17T02:02:01.949Z,67.00
2023-04-17T02:07:05.189Z,67.00
2023-04-17T02:12:09.987Z,67.10
2023-04-17T02:17:13.275Z,67.20
2023-04-17T02:22:18.543Z,67.20
2023-04-17T02:27:23.173Z,67.20
2023-04-17T02:32:26.768Z,67.30
2023-04-17T02:37:30.507Z,67.20
2023-04-17T02:42:35.485Z,67.10
2023-04-17T02:47:39.883Z,67.00
2023-04-17T02:52:43.578Z,66.90
2023-04-17T02:57:48.374Z,67.00
2023-04-17T03:02:52.529Z,67.10
2023-04-17T03:07:56.060Z,67.00
2023-04-17T03:13:01.082Z,66.90
2023-04-17T03:18:04.473Z,66.90
2023-04-17T03:23:07.748Z,66.70
2023-04-17T03:28:12.393Z,66.70
2023-04-17T03:33:16.342Z,66.80
2023-04-17T03:38:19.686Z,66.90
2023-04-17T03:43:25.049Z,66.90
2023-04-17T03:48:29.368Z,67.10
2023-04-17T03:53:33.004Z,67.00
2023-04-17T03:58:40.563Z,67.00
2023-04-17T04:03:46.617Z,67.20
2023-04-17T04:08:50.738Z,67.20
2023-04-17T04:13:56.401Z,67.20
2023-04-17T04:19:03.160Z,67.50
2023-04-17T04:24:06.811Z,67.40
2023-04-17T04:29:14.011Z,67.20
2023-04-17T04:34:38.826Z,67.40
2023-04-17T04:39:43.411Z,67.40
2023-04-17T04:44:52.532Z,67.40
2023-04-17T04:49:56.531Z,67.60
2023-04-17T04:55:01.926Z,67.60
2023-04-17T05:00:10.447Z,67.60
2023-04-17T05:05:20.129Z,67.80
2023-04-17T05:10:23.732Z,67.60
2023-04-17T05:15:33.508Z,67.50
2023-04-17T05:20:37.819Z,68.50
2023-04-17T05:25:42.116Z,67.50
2023-04-17T05:30:47.100Z,67.60
2023-04-17T05:35:56.373Z,67.50
2023-04-17T05:41:01.777Z,67.40
2023-04-17T05:46:06.776Z,68.60
2023-04-17T05:51:10.249Z,68.20
2023-04-17T05:56:14.294Z,67.70
2023-04-17T06:01:22.396Z,67.50
2023-04-17T06:06:29.159Z,67.40
2023-04-17T06:11:32.992Z,67.20
2023-04-17T06:16:37.677Z,67.10
2023-04-17T06:21:41.305Z,67.00
2023-04-17T06:26:44.572Z,67.00
2023-04-17T06:31:49.404Z,66.90
2023-04-17T06:36:56.659Z,66.90
2023-04-17T06:42:00.118Z,66.90
2023-04-17T06:47:06.012Z,66.90
2023-04-17T06:52:09.313Z,66.70
2023-04-17T06:57:12.683Z,66.70
2023-04-17T07:02:17.582Z,66.80
2023-04-17T07:07:21.224Z,66.60
2023-04-17T07:12:24.775Z,69.50
2023-04-17T07:17:29.530Z,71.70
2023-04-17T07:22:33.482Z,70.10
2023-04-17T07:27:38.539Z,68.50
2023-04-17T07:32:43.485Z,67.20
2023-04-17T07:37:46.779Z,66.20
2023-04-17T07:42:50.010Z,65.50
2023-04-17T07:47:54.603Z,65.30
2023-04-17T07:52:58.241Z,65.00
2023-04-17T07:58:04.326Z,64.90
2023-04-17T08:03:09.700Z,64.70
2023-04-17T08:08:13.076Z,64.50
2023-04-17T08:13:16.384Z,64.60
2023-04-17T08:18:21.050Z,64.50
2023-04-17T08:23:24.312Z,64.20
2023-04-17T08:28:27.889Z,64.10
2023-04-17T08:33:32.542Z,64.10
2023-04-17T08:38:35.825Z,63.80
2023-04-17T08:43:39.262Z,63.80
2023-04-17T08:48:43.870Z,63.70
2023-04-17T08:53:47.353Z,63.60
2023-04-17T08:58:50.546Z,63.70
2023-04-17T09:03:57.248Z,63.70
2023-04-17T09:09:02.051Z,63.30
2023-04-17T09:14:05.931Z,63.20
2023-04-17T09:19:11.070Z,63.00
2023-04-17T09:24:14.692Z,62.60
2023-04-17T09:29:17.900Z,62.40
2023-04-17T09:34:22.754Z,62.20
2023-04-17T09:39:26.142Z,61.70
2023-04-17T09:44:30.698Z,61.90
2023-04-17T09:49:42.293Z,61.50
2023-04-17T09:54:51.247Z,60.60
2023-04-17T09:59:59.605Z,61.10
2023-04-17T10:05:08.759Z,60.80
2023-04-17T10:10:14.335Z,60.80
2023-04-17T10:15:18.650Z,60.70
2023-04-17T10:20:38.206Z,61.10
2023-04-17T10:25:41.535Z,59.60
2023-04-17T10:30:54.027Z,60.70
2023-04-17T10:35:59.153Z,59.80
2023-04-17T10:41:04.951Z,60.30
2023-04-17T10:46:13.569Z,60.10
2023-04-17T10:51:43.946Z,59.20
2023-04-17T10:56:48.572Z,58.50
2023-04-17T11:02:00.926Z,59.50
2023-04-17T11:07:06.288Z,58.20
2023-04-17T11:12:09.554Z,58.60
2023-04-17T11:17:12.957Z,58.40
2023-04-17T11:22:19.643Z,58.10
2023-04-17T11:27:24.366Z,57.70
2023-04-17T11:32:27.752Z,57.50
2023-04-17T11:37:32.376Z,57.10
2023-04-17T11:42:36.008Z,56.30
2023-04-17T11:47:39.870Z,57.30
2023-04-17T11:52:47.297Z,56.50
2023-04-17T11:57:55.241Z,55.90
2023-04-17T12:02:59.637Z,55.40
2023-04-17T12:08:07.341Z,55.80
2023-04-17T12:13:12.264Z,55.00
2023-04-17T12:18:15.564Z,55.50
2023-04-17T12:23:20.732Z,55.60
2023-04-17T12:28:24.360Z,55.20
2023-04-17T12:33:27.646Z,55.10
2023-04-17T12:38:32.991Z,54.80
2023-04-17T12:43:36.233Z,53.80
2023-04-17T12:48:39.944Z,54.40
2023-04-17T12:53:44.796Z,54.30
2023-04-17T12:58:48.490Z,54.00
2023-04-17T13:03:54.135Z,53.80
2023-04-17T13:08:58.992Z,53.20
2023-04-17T13:14:02.246Z,53.00
2023-04-17T13:19:05.633Z,53.10
2023-04-17T13:24:14.566Z,52.50
2023-04-17T13:29:19.554Z,51.80
2023-04-17T13:34:23.296Z,52.30
2023-04-17T13:39:28.009Z,52.40
2023-04-17T13:44:32.187Z,52.30
2023-04-17T13:49:35.477Z,52.40
2023-04-17T13:54:41.427Z,52.70
2023-04-17T13:59:44.812Z,52.80
2023-04-17T14:04:48.264Z,53.30
2023-04-17T14:09:52.963Z,53.40
2023-04-17T14:14:58.144Z,53.20
2023-04-17T14:20:01.645Z,53.50
2023-04-17T14:25:07.020Z,53.50
2023-04-17T14:30:10.862Z,53.40
2023-04-17T14:35:14.484Z,53.30
2023-04-17T14:40:19.288Z,53.10
2023-04-17T14:45:22.594Z,52.90
2023-04-17T14:50:25.973Z,53.00
2023-04-17T14:55:31.025Z,53.10
2023-04-17T15:00:34.441Z,53.20
2023-04-17T15:05:37.981Z,53.40
2023-04-17T15:10:50.815Z,53.50
2023-04-17T15:15:55.249Z,53.70
2023-04-17T15:20:58.613Z,54.00
2023-04-17T15:26:03.331Z,54.20
2023-04-17T15:31:07.188Z,54.30
2023-04-17T15:36:11.418Z,54.30
2023-04-17T15:41:16.379Z,54.40
2023-04-17T15:46:19.854Z,54.60
2023-04-17T15:51:23.103Z,54.80
2023-04-17T15:56:27.713Z,54.90
2023-04-17T16:01:31.488Z,55.00
2023-04-17T16:06:34.881Z,55.00
2023-04-17T16:11:39.923Z,55.10
2023-04-17T16:16:43.661Z,55.10
2023-04-17T16:21:46.888Z,55.30
2023-04-17T16:26:57.742Z,55.40
2023-04-17T16:32:01.044Z,55.30
2023-04-17T16:37:04.647Z,55.50
2023-04-17T16:42:09.632Z,55.60
2023-04-17T16:47:14.258Z,55.70
2023-04-17T16:52:18.756Z,55.70
2023-04-17T16:57:23.626Z,55.90
2023-04-17T17:02:27.355Z,55.90
2023-04-17T17:07:31.152Z,56.00
2023-04-17T17:12:35.861Z,58.20
2023-04-17T17:17:40.063Z,59.40
2023-04-17T17:22:43.365Z,58.70
2023-04-17T17:27:48.077Z,57.70
2023-04-17T17:32:52.289Z,57.00
2023-04-17T17:37:57.023Z,56.40
2023-04-17T17:43:02.035Z,56.10
2023-04-17T17:48:06.061Z,55.80
2023-04-17T17:53:09.586Z,55.70
2023-04-17T17:58:14.651Z,55.40
2023-04-17T18:03:18.790Z,55.20
2023-04-17T18:08:23.796Z,55.20
2023-04-17T18:13:29.120Z,55.20
2023-04-17T18:18:33.801Z,55.10
2023-04-17T18:23:37.764Z,55.10
2023-04-17T18:28:43.864Z,55.20
2023-04-17T18:33:48.227Z,55.20
2023-04-17T18:38:53.393Z,55.30
2023-04-17T18:44:00.229Z,55.30
2023-04-17T18:49:04.509Z,55.20
2023-04-17T18:54:08.918Z,55.30
2023-04-17T18:59:15.510Z,55.40
2023-04-17T19:04:20.326Z,55.50
2023-04-17T19:09:24.143Z,55.50
2023-04-17T19:14:32.681Z,55.50
2023-04-17T19:19:36.712Z,55.70
2023-04-17T19:24:42.939Z,55.70
2023-04-17T19:29:48.150Z,55.70
2023-04-17T19:34:52.228Z,55.90
2023-04-17T19:39:56.826Z,55.90
2023-04-17T19:45:02.921Z,55.90
2023-04-17T19:50:10.001Z,56.00
2023-04-17T19:55:14.861Z,56.10
2023-04-17T20:00:21.267Z,56.20
2023-04-17T20:05:25.242Z,56.30
2023-04-17T20:10:29.205Z,56.40
2023-04-17T20:15:34.153Z,56.40
2023-04-17T20:20:38.195Z,56.60
2023-04-17T20:25:41.600Z,56.60
2023-04-17T20:30:46.610Z,56.60
2023-04-17T20:35:50.664Z,56.70
2023-04-17T20:40:54.113Z,56.80
2023-04-17T20:45:59.929Z,56.80
2023-04-17T20:51:05.892Z,56.90
2023-04-17T20:56:09.492Z,56.90
2023-04-17T21:01:14.197Z,57.00
2023-04-17T21:06:17.862Z,57.20
2023-04-17T21:11:22.454Z,57.10
2023-04-17T21:16:27.420Z,57.30
2023-04-17T21:21:30.812Z,57.40
2023-04-17T21:26:34.119Z,57.40
2023-04-17T21:31:39.196Z,57.50
2023-04-17T21:36:42.434Z,57.70
2023-04-17T21:41:45.832Z,57.70
2023-04-17T21:46:50.587Z,57.80
2023-04-17T21:51:53.832Z,57.80
2023-04-17T21:56:57.087Z,57.80
2023-04-17T22:02:01.874Z,57.80
2023-04-17T22:07:05.706Z,58.00
2023-04-17T22:12:12.763Z,58.00
2023-04-17T22:17:17.352Z,58.10
2023-04-17T22:22:20.596Z,58.10
2023-04-17T22:27:24.132Z,58.10
2023-04-17T22:32:28.824Z,58.10
2023-04-17T22:37:32.053Z,58.20
2023-04-17T22:42:35.282Z,58.20
2023-04-17T22:47:40.010Z,58.30
2023-04-17T22:52:43.186Z,58.40
2023-04-17T22:57:46.572Z,58.30
2023-04-17T23:02:51.304Z,58.40
2023-04-17T23:07:54.560Z,58.40
2023-04-17T23:12:57.695Z,58.40
2023-04-17T23:18:02.459Z,58.50
2023-04-17T23:23:11.988Z,58.60
2023-04-17T23:28:15.226Z,58.50
2023-04-17T23:33:19.841Z,58.50
2023-04-17T23:38:23.107Z,58.50
2023-04-17T23:43:26.340Z,58.60
2023-04-17T23:48:31.057Z,58.60
2023-04-17T23:53:34.249Z,58.70
2023-04-17T23:58:37.452Z,58.60
